Houwa Maru — JL6394 — position and weather

sailwx.info

Track history (hours):
 
Tides and Currents Weather Stations Pressure Air Temp Water Temp Dewpoint Dewpoint Depression Visibility Wind Speed Wind Dir Waves Ship Positions

Houwa Maru

Last reported at 2015-Mar-28 10:15 UTC. Time now 2015-Mar-29 07:29 UTC.
Position N 34°32' E 135°21'.

Length 76 m.

Type: Ship. MMSI: 431500378.

Date/timePositionNaut miles runAvg speedWind from/ knotsBaromVisibWave heightAir tempDewpointWater temp
2015-Mar-28 10:15N 34°32' E 135°21'1010.8
2015-Mar-28 09:20N 34°26' E 135°11'1310.8
2015-Mar-28 08:08N 34°15' E 135°03'230 5.3
2015-Mar-26 13:04N 35°05' E 139°35'611.5
2015-Mar-26 12:33N 35°08' E 139°42'1010.2
2015-Mar-26 11:34N 35°18' E 139°45'10 9.5
2015-Mar-26 10:33N 35°27' E 139°47'1111.0
2015-Mar-26 09:32N 35°35' E 139°57'6 5.4
2015-Mar-26 08:23N 35°41' E 139°59'0 0.0
2015-Mar-26 07:29N 35°41' E 139°59'0 0.0
2015-Mar-26 06:32N 35°41' E 139°59'0 0.0
2015-Mar-26 05:32N 35°41' E 139°59'0 0.0
2015-Mar-26 04:29N 35°41' E 139°59'0 0.0
2015-Mar-26 03:29N 35°41' E 139°59'4 4.6
2015-Mar-26 02:33N 35°37' E 139°59'1110.5
2015-Mar-26 01:32N 35°28' E 139°51'12 9.3
2015-Mar-26 00:17N 35°17' E 139°45'7 9.6
2015-Mar-25 23:33N 35°10' E 139°46'  
2015-Mar-21 10:24N 35°05' E 139°36'910.9
2015-Mar-21 09:33N 35°11' E 139°45'10 9.7
2015-Mar-21 08:32N 35°21' E 139°42'8 5.6
2015-Mar-21 07:10N 35°28' E 139°42'0 0.0
2015-Mar-21 06:25N 35°28' E 139°42'0 0.0
2015-Mar-21 04:04N 35°28' E 139°42'0 0.0
2015-Mar-21 03:10N 35°28' E 139°42'0 0.0
2015-Mar-21 01:10N 35°28' E 139°42'0 0.0
2015-Mar-20 21:13N 35°28' E 139°42'0 0.0
2015-Mar-20 19:23N 35°28' E 139°42'0 0.0
2015-Mar-20 18:13N 35°28' E 139°42'0 0.0
2015-Mar-20 17:25N 35°28' E 139°42'2 0.3
2015-Mar-20 10:33N 35°27' E 139°43'0 0.0
2015-Mar-20 09:30N 35°27' E 139°43'0 0.0
2015-Mar-20 08:15N 35°27' E 139°43'0 0.0
2015-Mar-20 07:27N 35°27' E 139°43'0 0.0
2015-Mar-20 06:06N 35°27' E 139°43'0 0.0
2015-Mar-20 05:30N 35°27' E 139°43'0 0.0
2015-Mar-20 04:21N 35°27' E 139°43'0 0.0
2015-Mar-20 03:30N 35°27' E 139°43'0 0.0
2015-Mar-20 02:27N 35°27' E 139°43'0 0.0
2015-Mar-20 01:12N 35°27' E 139°43'0 0.0
2015-Mar-20 00:18N 35°27' E 139°43'0 0.2
2015-Mar-19 23:33N 35°26' E 139°43'7 0.2
2015-Mar-18 14:19N 35°20' E 139°44'810.1
2015-Mar-18 13:31N 35°12' E 139°47'  
Track history (hours):
 
Tides and Currents Weather Stations Pressure Air Temp Water Temp Dewpoint Dewpoint Depression Visibility Wind Speed Wind Dir Waves Ship Positions

Houwa Maru

Last reported at 2015-Mar-28 10:15 UTC. Time now 2015-Mar-29 07:29 UTC.
Position N 34°32' E 135°21'.

Length 76 m.

Type: Ship. MMSI: 431500378.

Date/timePositionNaut miles runAvg speedWind from/ knotsBaromVisibWave heightAir tempDewpointWater temp
2015-Mar-28 10:15N 34°32' E 135°21'1010.8
2015-Mar-28 09:20N 34°26' E 135°11'1310.8
2015-Mar-28 08:08N 34°15' E 135°03'230 5.3
2015-Mar-26 13:04N 35°05' E 139°35'611.5
2015-Mar-26 12:33N 35°08' E 139°42'1010.2
2015-Mar-26 11:34N 35°18' E 139°45'10 9.5
2015-Mar-26 10:33N 35°27' E 139°47'1111.0
2015-Mar-26 09:32N 35°35' E 139°57'6 5.4
2015-Mar-26 08:23N 35°41' E 139°59'0 0.0
2015-Mar-26 07:29N 35°41' E 139°59'0 0.0
2015-Mar-26 06:32N 35°41' E 139°59'0 0.0
2015-Mar-26 05:32N 35°41' E 139°59'0 0.0
2015-Mar-26 04:29N 35°41' E 139°59'0 0.0
2015-Mar-26 03:29N 35°41' E 139°59'4 4.6
2015-Mar-26 02:33N 35°37' E 139°59'1110.5
2015-Mar-26 01:32N 35°28' E 139°51'12 9.3
2015-Mar-26 00:17N 35°17' E 139°45'7 9.6
2015-Mar-25 23:33N 35°10' E 139°46'  
2015-Mar-21 10:24N 35°05' E 139°36'910.9
2015-Mar-21 09:33N 35°11' E 139°45'10 9.7
2015-Mar-21 08:32N 35°21' E 139°42'8 5.6
2015-Mar-21 07:10N 35°28' E 139°42'0 0.0
2015-Mar-21 06:25N 35°28' E 139°42'0 0.0
2015-Mar-21 04:04N 35°28' E 139°42'0 0.0
2015-Mar-21 03:10N 35°28' E 139°42'0 0.0
2015-Mar-21 01:10N 35°28' E 139°42'0 0.0
2015-Mar-20 21:13N 35°28' E 139°42'0 0.0
2015-Mar-20 19:23N 35°28' E 139°42'0 0.0
2015-Mar-20 18:13N 35°28' E 139°42'0 0.0
2015-Mar-20 17:25N 35°28' E 139°42'2 0.3
2015-Mar-20 10:33N 35°27' E 139°43'0 0.0
2015-Mar-20 09:30N 35°27' E 139°43'0 0.0
2015-Mar-20 08:15N 35°27' E 139°43'0 0.0
2015-Mar-20 07:27N 35°27' E 139°43'0 0.0
2015-Mar-20 06:06N 35°27' E 139°43'0 0.0
2015-Mar-20 05:30N 35°27' E 139°43'0 0.0
2015-Mar-20 04:21N 35°27' E 139°43'0 0.0
2015-Mar-20 03:30N 35°27' E 139°43'0 0.0
2015-Mar-20 02:27N 35°27' E 139°43'0 0.0
2015-Mar-20 01:12N 35°27' E 139°43'0 0.0
2015-Mar-20 00:18N 35°27' E 139°43'0 0.2
2015-Mar-19 23:33N 35°26' E 139°43'7 0.2
2015-Mar-18 14:19N 35°20' E 139°44'810.1
2015-Mar-18 13:31N 35°12' E 139°47'  

Dump ship's entire track history